sensor_id;sensor_type;location;lat;lon;timestamp;temperature;humidity
7562;DHT22;3822;48.784;9.174;2022-09-09T00:02:01;19.80;73.50
7562;DHT22;3822;48.784;9.174;2022-09-09T00:04:59;19.80;73.50
7562;DHT22;3822;48.784;9.174;2022-09-09T00:15:59;19.70;73.60
7562;DHT22;3822;48.784;9.174;2022-09-09T00:21:47;19.60;73.70
7562;DHT22;3822;48.784;9.174;2022-09-09T00:24:27;19.60;73.70
7562;DHT22;3822;48.784;9.174;2022-09-09T00:27:08;19.60;73.90
7562;DHT22;3822;48.784;9.174;2022-09-09T00:29:47;19.60;74.00
7562;DHT22;3822;48.784;9.174;2022-09-09T00:32:20;19.60;74.10
7562;DHT22;3822;48.784;9.174;2022-09-09T00:34:52;19.60;74.20
7562;DHT22;3822;48.784;9.174;2022-09-09T00:37:22;19.60;74.20
7562;DHT22;3822;48.784;9.174;2022-09-09T00:39:54;19.60;74.20
7562;DHT22;3822;48.784;9.174;2022-09-09T00:42:41;19.60;74.20
7562;DHT22;3822;48.784;9.174;2022-09-09T00:45:30;19.60;74.20
7562;DHT22;3822;48.784;9.174;2022-09-09T00:48:08;19.60;74.30
7562;DHT22;3822;48.784;9.174;2022-09-09T00:53:33;19.60;74.30
7562;DHT22;3822;48.784;9.174;2022-09-09T00:56:18;19.60;74.20
7562;DHT22;3822;48.784;9.174;2022-09-09T00:59:12;19.70;74.30
7562;DHT22;3822;48.784;9.174;2022-09-09T01:01:51;19.70;74.10
7562;DHT22;3822;48.784;9.174;2022-09-09T01:04:32;19.60;74.00
7562;DHT22;3822;48.784;9.174;2022-09-09T01:07:17;19.60;74.00
7562;DHT22;3822;48.784;9.174;2022-09-09T01:09:59;19.60;74.00
7562;DHT22;3822;48.784;9.174;2022-09-09T01:12:47;19.60;74.00
7562;DHT22;3822;48.784;9.174;2022-09-09T01:15:22;19.60;74.00
7562;DHT22;3822;48.784;9.174;2022-09-09T01:18:12;19.60;74.00
7562;DHT22;3822;48.784;9.174;2022-09-09T01:20:49;19.60;74.00
7562;DHT22;3822;48.784;9.174;2022-09-09T01:26:37;19.60;73.90
7562;DHT22;3822;48.784;9.174;2022-09-09T01:29:10;19.60;73.80
7562;DHT22;3822;48.784;9.174;2022-09-09T01:31:41;19.50;73.80
7562;DHT22;3822;48.784;9.174;2022-09-09T01:34:19;19.60;73.90
7562;DHT22;3822;48.784;9.174;2022-09-09T01:39:33;19.50;73.80
7562;DHT22;3822;48.784;9.174;2022-09-09T01:42:02;19.50;73.90
7562;DHT22;3822;48.784;9.174;2022-09-09T01:44:34;19.50;74.00
7562;DHT22;3822;48.784;9.174;2022-09-09T01:47:02;19.50;74.10
7562;DHT22;3822;48.784;9.174;2022-09-09T01:49:30;19.50;74.10
7562;DHT22;3822;48.784;9.174;2022-09-09T01:51:57;19.50;74.20
7562;DHT22;3822;48.784;9.174;2022-09-09T01:54:27;19.50;74.10
7562;DHT22;3822;48.784;9.174;2022-09-09T01:57:21;19.50;74.20
7562;DHT22;3822;48.784;9.174;2022-09-09T02:00:08;19.50;74.30
7562;DHT22;3822;48.784;9.174;2022-09-09T02:08:46;19.40;74.40
7562;DHT22;3822;48.784;9.174;2022-09-09T02:11:24;19.40;74.50
7562;DHT22;3822;48.784;9.174;2022-09-09T02:13:57;19.40;74.60
7562;DHT22;3822;48.784;9.174;2022-09-09T02:16:50;19.40;74.70
7562;DHT22;3822;48.784;9.174;2022-09-09T02:20:08;19.40;74.80
7562;DHT22;3822;48.784;9.174;2022-09-09T02:22:18;19.40;74.80
7562;DHT22;3822;48.784;9.174;2022-09-09T02:24:47;19.40;75.00
7562;DHT22;3822;48.784;9.174;2022-09-09T02:27:14;19.40;75.00
7562;DHT22;3822;48.784;9.174;2022-09-09T02:29:43;19.40;75.20
7562;DHT22;3822;48.784;9.174;2022-09-09T02:32:15;19.40;75.30
7562;DHT22;3822;48.784;9.174;2022-09-09T02:34:47;19.40;75.40
7562;DHT22;3822;48.784;9.174;2022-09-09T02:37:19;19.40;75.50
7562;DHT22;3822;48.784;9.174;2022-09-09T02:39:47;19.40;75.50
7562;DHT22;3822;48.784;9.174;2022-09-09T02:42:13;19.40;75.60
7562;DHT22;3822;48.784;9.174;2022-09-09T02:44:41;19.40;75.60
7562;DHT22;3822;48.784;9.174;2022-09-09T02:50:08;19.40;75.70
7562;DHT22;3822;48.784;9.174;2022-09-09T02:55:44;19.30;75.90
7562;DHT22;3822;48.784;9.174;2022-09-09T02:58:17;19.30;76.10
7562;DHT22;3822;48.784;9.174;2022-09-09T03:00:47;19.20;76.20
7562;DHT22;3822;48.784;9.174;2022-09-09T03:03:15;19.20;76.30
7562;DHT22;3822;48.784;9.174;2022-09-09T03:05:44;19.10;76.40
7562;DHT22;3822;48.784;9.174;2022-09-09T03:08:12;19.10;76.60
7562;DHT22;3822;48.784;9.174;2022-09-09T03:10:39;19.10;76.80
7562;DHT22;3822;48.784;9.174;2022-09-09T03:13:06;19.10;76.90
7562;DHT22;3822;48.784;9.174;2022-09-09T03:15:33;19.10;77.10
7562;DHT22;3822;48.784;9.174;2022-09-09T03:18:00;19.10;77.10
7562;DHT22;3822;48.784;9.174;2022-09-09T03:20:28;19.10;77.30
7562;DHT22;3822;48.784;9.174;2022-09-09T03:22:56;19.10;77.40
7562;DHT22;3822;48.784;9.174;2022-09-09T03:25:23;19.10;77.50
7562;DHT22;3822;48.784;9.174;2022-09-09T03:27:51;19.10;77.50
7562;DHT22;3822;48.784;9.174;2022-09-09T03:30:24;19.10;77.50
7562;DHT22;3822;48.784;9.174;2022-09-09T03:32:53;19.10;77.50
7562;DHT22;3822;48.784;9.174;2022-09-09T03:35:21;19.00;77.50
7562;DHT22;3822;48.784;9.174;2022-09-09T03:37:48;19.00;77.60
7562;DHT22;3822;48.784;9.174;2022-09-09T03:40:15;19.00;77.70
7562;DHT22;3822;48.784;9.174;2022-09-09T03:42:42;19.00;77.70
7562;DHT22;3822;48.784;9.174;2022-09-09T03:45:09;18.90;77.80
7562;DHT22;3822;48.784;9.174;2022-09-09T03:47:36;18.90;78.20
7562;DHT22;3822;48.784;9.174;2022-09-09T03:50:05;18.90;78.10
7562;DHT22;3822;48.784;9.174;2022-09-09T03:52:36;18.90;78.30
7562;DHT22;3822;48.784;9.174;2022-09-09T03:55:04;18.90;78.40
7562;DHT22;3822;48.784;9.174;2022-09-09T03:57:32;18.80;78.40
7562;DHT22;3822;48.784;9.174;2022-09-09T04:00:05;18.80;78.50
7562;DHT22;3822;48.784;9.174;2022-09-09T04:02:33;18.80;78.50
7562;DHT22;3822;48.784;9.174;2022-09-09T04:05:00;18.80;78.60
7562;DHT22;3822;48.784;9.174;2022-09-09T04:07:27;18.80;78.70
7562;DHT22;3822;48.784;9.174;2022-09-09T04:09:54;18.50;78.50
7562;DHT22;3822;48.784;9.174;2022-09-09T04:12:20;18.70;78.80
7562;DHT22;3822;48.784;9.174;2022-09-09T04:14:48;18.70;78.90
7562;DHT22;3822;48.784;9.174;2022-09-09T04:17:15;18.70;79.70
7562;DHT22;3822;48.784;9.174;2022-09-09T04:19:41;18.70;79.10
7562;DHT22;3822;48.784;9.174;2022-09-09T04:22:08;18.70;79.20
7562;DHT22;3822;48.784;9.174;2022-09-09T04:24:35;18.70;79.30
7562;DHT22;3822;48.784;9.174;2022-09-09T04:27:02;18.70;79.50
7562;DHT22;3822;48.784;9.174;2022-09-09T04:29:28;18.70;79.50
7562;DHT22;3822;48.784;9.174;2022-09-09T04:31:55;18.70;79.60
7562;DHT22;3822;48.784;9.174;2022-09-09T04:34:21;18.60;79.60
7562;DHT22;3822;48.784;9.174;2022-09-09T04:36:48;18.60;79.70
7562;DHT22;3822;48.784;9.174;2022-09-09T04:39:14;18.60;79.90
7562;DHT22;3822;48.784;9.174;2022-09-09T04:41:41;18.60;80.00
7562;DHT22;3822;48.784;9.174;2022-09-09T04:44:07;18.60;80.10
7562;DHT22;3822;48.784;9.174;2022-09-09T04:46:34;18.60;80.10
7562;DHT22;3822;48.784;9.174;2022-09-09T04:49:01;18.60;80.20
7562;DHT22;3822;48.784;9.174;2022-09-09T04:51:27;18.60;80.30
7562;DHT22;3822;48.784;9.174;2022-09-09T04:53:54;18.60;80.30
7562;DHT22;3822;48.784;9.174;2022-09-09T04:56:20;18.60;80.50
7562;DHT22;3822;48.784;9.174;2022-09-09T04:58:47;18.50;80.40
7562;DHT22;3822;48.784;9.174;2022-09-09T05:01:18;18.50;80.40
7562;DHT22;3822;48.784;9.174;2022-09-09T05:03:47;18.50;80.60
7562;DHT22;3822;48.784;9.174;2022-09-09T05:06:18;18.40;80.60
7562;DHT22;3822;48.784;9.174;2022-09-09T05:08:45;18.40;80.80
7562;DHT22;3822;48.784;9.174;2022-09-09T05:11:19;18.40;81.00
7562;DHT22;3822;48.784;9.174;2022-09-09T05:13:50;18.40;81.50
7562;DHT22;3822;48.784;9.174;2022-09-09T05:16:17;18.40;81.30
7562;DHT22;3822;48.784;9.174;2022-09-09T05:18:44;18.40;81.40
7562;DHT22;3822;48.784;9.174;2022-09-09T05:21:13;18.40;81.60
7562;DHT22;3822;48.784;9.174;2022-09-09T05:23:40;18.30;81.60
7562;DHT22;3822;48.784;9.174;2022-09-09T05:26:11;18.30;81.80
7562;DHT22;3822;48.784;9.174;2022-09-09T05:28:39;18.30;82.00
7562;DHT22;3822;48.784;9.174;2022-09-09T05:31:08;18.30;82.10
7562;DHT22;3822;48.784;9.174;2022-09-09T05:33:38;18.30;82.20
7562;DHT22;3822;48.784;9.174;2022-09-09T05:36:11;18.30;82.30
7562;DHT22;3822;48.784;9.174;2022-09-09T05:38:40;18.30;82.40
7562;DHT22;3822;48.784;9.174;2022-09-09T05:41:08;18.70;82.80
7562;DHT22;3822;48.784;9.174;2022-09-09T05:43:38;18.40;82.60
7562;DHT22;3822;48.784;9.174;2022-09-09T05:46:11;18.40;82.60
7562;DHT22;3822;48.784;9.174;2022-09-09T05:48:41;18.40;82.60
7562;DHT22;3822;48.784;9.174;2022-09-09T05:51:11;18.40;82.70
7562;DHT22;3822;48.784;9.174;2022-09-09T05:53:39;18.40;82.80
7562;DHT22;3822;48.784;9.174;2022-09-09T05:56:07;18.50;82.90
7562;DHT22;3822;48.784;9.174;2022-09-09T05:58:37;18.50;82.80
7562;DHT22;3822;48.784;9.174;2022-09-09T06:01:12;18.60;82.90
7562;DHT22;3822;48.784;9.174;2022-09-09T06:03:43;18.60;82.90
7562;DHT22;3822;48.784;9.174;2022-09-09T06:06:16;18.60;82.90
7562;DHT22;3822;48.784;9.174;2022-09-09T06:08:44;18.70;82.90
7562;DHT22;3822;48.784;9.174;2022-09-09T06:11:23;18.70;82.90
7562;DHT22;3822;48.784;9.174;2022-09-09T06:13:53;18.70;82.90
7562;DHT22;3822;48.784;9.174;2022-09-09T06:16:25;18.70;82.90
7562;DHT22;3822;48.784;9.174;2022-09-09T06:18:56;18.70;82.80
7562;DHT22;3822;48.784;9.174;2022-09-09T06:21:26;18.70;82.90
7562;DHT22;3822;48.784;9.174;2022-09-09T06:23:53;18.70;82.90
7562;DHT22;3822;48.784;9.174;2022-09-09T06:26:23;18.80;83.10
7562;DHT22;3822;48.784;9.174;2022-09-09T06:28:53;18.80;83.20
7562;DHT22;3822;48.784;9.174;2022-09-09T06:31:22;18.80;83.20
7562;DHT22;3822;48.784;9.174;2022-09-09T06:33:51;18.80;83.20
7562;DHT22;3822;48.784;9.174;2022-09-09T06:36:21;18.80;83.30
7562;DHT22;3822;48.784;9.174;2022-09-09T06:38:51;18.90;83.40
7562;DHT22;3822;48.784;9.174;2022-09-09T06:41:19;18.90;83.40
7562;DHT22;3822;48.784;9.174;2022-09-09T06:43:47;18.90;83.40
7562;DHT22;3822;48.784;9.174;2022-09-09T06:46:22;18.90;83.50
7562;DHT22;3822;48.784;9.174;2022-09-09T06:48:54;19.00;83.50
7562;DHT22;3822;48.784;9.174;2022-09-09T06:51:27;19.10;83.60
7562;DHT22;3822;48.784;9.174;2022-09-09T06:53:58;19.10;83.50
7562;DHT22;3822;48.784;9.174;2022-09-09T06:56:28;19.20;83.60
7562;DHT22;3822;48.784;9.174;2022-09-09T06:59:01;19.20;83.50
7562;DHT22;3822;48.784;9.174;2022-09-09T07:01:31;19.20;83.50
7562;DHT22;3822;48.784;9.174;2022-09-09T07:03:59;19.30;83.50
7562;DHT22;3822;48.784;9.174;2022-09-09T07:06:29;19.30;83.50
7562;DHT22;3822;48.784;9.174;2022-09-09T07:09:04;19.40;83.60
7562;DHT22;3822;48.784;9.174;2022-09-09T07:11:38;19.40;83.40
7562;DHT22;3822;48.784;9.174;2022-09-09T07:14:08;19.50;83.50
7562;DHT22;3822;48.784;9.174;2022-09-09T07:16:35;19.60;83.60
7562;DHT22;3822;48.784;9.174;2022-09-09T07:19:04;19.60;83.50
7562;DHT22;3822;48.784;9.174;2022-09-09T07:21:32;19.70;83.50
7562;DHT22;3822;48.784;9.174;2022-09-09T07:23:59;19.70;83.40
7562;DHT22;3822;48.784;9.174;2022-09-09T07:26:29;19.80;83.20
7562;DHT22;3822;48.784;9.174;2022-09-09T07:28:56;19.80;82.90
7562;DHT22;3822;48.784;9.174;2022-09-09T07:31:28;19.80;82.70
7562;DHT22;3822;48.784;9.174;2022-09-09T07:34:00;19.80;82.70
7562;DHT22;3822;48.784;9.174;2022-09-09T07:36:31;19.80;82.60
7562;DHT22;3822;48.784;9.174;2022-09-09T07:39:03;19.90;82.70
7562;DHT22;3822;48.784;9.174;2022-09-09T07:41:41;19.80;82.50
7562;DHT22;3822;48.784;9.174;2022-09-09T07:44:14;19.90;82.50
7562;DHT22;3822;48.784;9.174;2022-09-09T07:46:45;20.00;82.70
7562;DHT22;3822;48.784;9.174;2022-09-09T07:49:12;20.00;82.50
7562;DHT22;3822;48.784;9.174;2022-09-09T07:51:43;20.10;82.40
7562;DHT22;3822;48.784;9.174;2022-09-09T07:54:13;20.10;82.30
7562;DHT22;3822;48.784;9.174;2022-09-09T07:56:41;20.20;82.20
7562;DHT22;3822;48.784;9.174;2022-09-09T07:59:09;20.20;82.10
7562;DHT22;3822;48.784;9.174;2022-09-09T08:01:47;20.20;82.20
7562;DHT22;3822;48.784;9.174;2022-09-09T08:04:18;20.30;82.20
7562;DHT22;3822;48.784;9.174;2022-09-09T08:06:50;20.40;82.20
7562;DHT22;3822;48.784;9.174;2022-09-09T08:09:28;20.50;82.00
7562;DHT22;3822;48.784;9.174;2022-09-09T08:11:56;20.60;82.00
7562;DHT22;3822;48.784;9.174;2022-09-09T08:14:24;20.80;81.80
7562;DHT22;3822;48.784;9.174;2022-09-09T08:17:09;20.90;81.50
7562;DHT22;3822;48.784;9.174;2022-09-09T08:19:38;21.00;81.20
7562;DHT22;3822;48.784;9.174;2022-09-09T08:22:04;21.10;80.90
7562;DHT22;3822;48.784;9.174;2022-09-09T08:24:31;21.20;80.30
7562;DHT22;3822;48.784;9.174;2022-09-09T08:26:58;21.30;79.90
7562;DHT22;3822;48.784;9.174;2022-09-09T08:29:24;21.30;79.30
7562;DHT22;3822;48.784;9.174;2022-09-09T08:31:53;21.40;79.30
7562;DHT22;3822;48.784;9.174;2022-09-09T08:34:21;21.50;79.20
7562;DHT22;3822;48.784;9.174;2022-09-09T08:36:50;21.60;78.70
7562;DHT22;3822;48.784;9.174;2022-09-09T08:39:19;21.60;78.10
7562;DHT22;3822;48.784;9.174;2022-09-09T08:44:36;21.70;77.60
7562;DHT22;3822;48.784;9.174;2022-09-09T08:48:36;21.70;77.70
7562;DHT22;3822;48.784;9.174;2022-09-09T08:50:35;21.80;77.50
7562;DHT22;3822;48.784;9.174;2022-09-09T08:53:17;21.90;77.50
7562;DHT22;3822;48.784;9.174;2022-09-09T08:56:02;21.90;77.30
7562;DHT22;3822;48.784;9.174;2022-09-09T08:58:34;22.00;77.10
7562;DHT22;3822;48.784;9.174;2022-09-09T09:03:44;22.10;75.70
7562;DHT22;3822;48.784;9.174;2022-09-09T09:09:14;22.20;73.50
7562;DHT22;3822;48.784;9.174;2022-09-09T09:12:16;22.20;72.90
7562;DHT22;3822;48.784;9.174;2022-09-09T09:14:47;22.20;72.60
7562;DHT22;3822;48.784;9.174;2022-09-09T09:17:19;22.20;72.10
7562;DHT22;3822;48.784;9.174;2022-09-09T09:19:48;21.50;71.00
7562;DHT22;3822;48.784;9.174;2022-09-09T09:22:22;22.20;71.60
7562;DHT22;3822;48.784;9.174;2022-09-09T09:24:56;22.20;71.40
7562;DHT22;3822;48.784;9.174;2022-09-09T09:27:33;22.20;71.20
7562;DHT22;3822;48.784;9.174;2022-09-09T09:30:12;22.10;71.90
7562;DHT22;3822;48.784;9.174;2022-09-09T09:32:50;22.10;72.60
7562;DHT22;3822;48.784;9.174;2022-09-09T09:35:22;22.00;73.50
7562;DHT22;3822;48.784;9.174;2022-09-09T09:37:50;21.90;73.70
7562;DHT22;3822;48.784;9.174;2022-09-09T09:40:19;21.90;73.60
7562;DHT22;3822;48.784;9.174;2022-09-09T09:42:55;21.80;73.00
7562;DHT22;3822;48.784;9.174;2022-09-09T09:45:40;21.70;71.90
7562;DHT22;3822;48.784;9.174;2022-09-09T09:48:14;21.60;71.80
7562;DHT22;3822;48.784;9.174;2022-09-09T09:50:50;21.60;71.50
7562;DHT22;3822;48.784;9.174;2022-09-09T09:58:22;21.50;71.00
7562;DHT22;3822;48.784;9.174;2022-09-09T10:00:50;21.50;70.80
7562;DHT22;3822;48.784;9.174;2022-09-09T10:03:27;21.50;70.80
7562;DHT22;3822;48.784;9.174;2022-09-09T10:05:55;21.60;70.80
7562;DHT22;3822;48.784;9.174;2022-09-09T10:08:25;21.60;70.80
7562;DHT22;3822;48.784;9.174;2022-09-09T10:11:24;21.60;71.20
7562;DHT22;3822;48.784;9.174;2022-09-09T10:14:05;21.60;71.20
7562;DHT22;3822;48.784;9.174;2022-09-09T10:20:32;21.70;71.80
7562;DHT22;3822;48.784;9.174;2022-09-09T10:29:32;22.00;73.00
7562;DHT22;3822;48.784;9.174;2022-09-09T10:35:09;22.20;73.00
7562;DHT22;3822;48.784;9.174;2022-09-09T10:41:15;22.40;72.40
7562;DHT22;3822;48.784;9.174;2022-09-09T10:49:33;22.70;72.50
7562;DHT22;3822;48.784;9.174;2022-09-09T10:52:22;22.80;72.50
7562;DHT22;3822;48.784;9.174;2022-09-09T10:55:17;22.90;72.90
7562;DHT22;3822;48.784;9.174;2022-09-09T10:57:48;23.00;73.10
7562;DHT22;3822;48.784;9.174;2022-09-09T11:03:04;23.10;73.20
7562;DHT22;3822;48.784;9.174;2022-09-09T11:05:41;23.10;73.50
7562;DHT22;3822;48.784;9.174;2022-09-09T11:08:14;23.30;72.20
7562;DHT22;3822;48.784;9.174;2022-09-09T11:16:36;23.50;69.70
7562;DHT22;3822;48.784;9.174;2022-09-09T11:21:52;23.60;67.50
7562;DHT22;3822;48.784;9.174;2022-09-09T11:38:51;22.60;62.50
7562;DHT22;3822;48.784;9.174;2022-09-09T11:41:21;22.40;63.60
7562;DHT22;3822;48.784;9.174;2022-09-09T11:43:52;22.30;64.60
7562;DHT22;3822;48.784;9.174;2022-09-09T11:46:35;22.10;65.90
7562;DHT22;3822;48.784;9.174;2022-09-09T11:49:05;22.00;65.80
7562;DHT22;3822;48.784;9.174;2022-09-09T11:51:33;22.30;66.50
7562;DHT22;3822;48.784;9.174;2022-09-09T11:56:58;21.70;67.20
7562;DHT22;3822;48.784;9.174;2022-09-09T11:59:25;21.70;67.70
7562;DHT22;3822;48.784;9.174;2022-09-09T12:02:03;21.60;67.40
7562;DHT22;3822;48.784;9.174;2022-09-09T12:04:40;21.60;66.50
7562;DHT22;3822;48.784;9.174;2022-09-09T12:07:52;21.50;66.80
7562;DHT22;3822;48.784;9.174;2022-09-09T12:10:30;21.60;66.40
7562;DHT22;3822;48.784;9.174;2022-09-09T12:13:29;21.60;66.20
7562;DHT22;3822;48.784;9.174;2022-09-09T12:15:58;21.70;66.30
7562;DHT22;3822;48.784;9.174;2022-09-09T12:18:36;21.70;66.40
7562;DHT22;3822;48.784;9.174;2022-09-09T12:24:09;22.00;66.10
7562;DHT22;3822;48.784;9.174;2022-09-09T12:26:58;22.10;65.50
7562;DHT22;3822;48.784;9.174;2022-09-09T12:32:13;22.40;63.80
7562;DHT22;3822;48.784;9.174;2022-09-09T12:34:47;22.50;62.90
7562;DHT22;3822;48.784;9.174;2022-09-09T12:39:58;22.70;61.80
7562;DHT22;3822;48.784;9.174;2022-09-09T12:42:26;22.80;60.90
7562;DHT22;3822;48.784;9.174;2022-09-09T12:45:02;23.00;60.30
7562;DHT22;3822;48.784;9.174;2022-09-09T12:47:46;23.10;59.40
7562;DHT22;3822;48.784;9.174;2022-09-09T12:50:19;23.10;59.20
7562;DHT22;3822;48.784;9.174;2022-09-09T12:52:50;23.20;59.10
7562;DHT22;3822;48.784;9.174;2022-09-09T12:55:20;23.10;59.10
7562;DHT22;3822;48.784;9.174;2022-09-09T12:57:51;23.10;59.50
7562;DHT22;3822;48.784;9.174;2022-09-09T13:00:21;23.10;59.80
7562;DHT22;3822;48.784;9.174;2022-09-09T13:02:54;23.10;60.00
7562;DHT22;3822;48.784;9.174;2022-09-09T13:05:34;23.10;60.00
7562;DHT22;3822;48.784;9.174;2022-09-09T13:08:03;23.20;59.40
7562;DHT22;3822;48.784;9.174;2022-09-09T13:10:36;23.30;59.40
7562;DHT22;3822;48.784;9.174;2022-09-09T13:13:16;23.40;59.70
7562;DHT22;3822;48.784;9.174;2022-09-09T13:15:54;23.60;59.70
7562;DHT22;3822;48.784;9.174;2022-09-09T13:18:26;23.70;59.10
7562;DHT22;3822;48.784;9.174;2022-09-09T13:20:58;23.70;58.80
7562;DHT22;3822;48.784;9.174;2022-09-09T13:23:30;23.80;58.70
7562;DHT22;3822;48.784;9.174;2022-09-09T13:26:00;23.90;58.40
7562;DHT22;3822;48.784;9.174;2022-09-09T13:28:30;23.90;58.50
7562;DHT22;3822;48.784;9.174;2022-09-09T13:31:01;24.00;58.70
7562;DHT22;3822;48.784;9.174;2022-09-09T13:33:34;24.00;58.90
7562;DHT22;3822;48.784;9.174;2022-09-09T13:36:12;24.10;58.20
7562;DHT22;3822;48.784;9.174;2022-09-09T13:44:04;24.60;57.00
7562;DHT22;3822;48.784;9.174;2022-09-09T13:46:40;24.80;56.00
7562;DHT22;3822;48.784;9.174;2022-09-09T13:51:47;25.00;54.50
7562;DHT22;3822;48.784;9.174;2022-09-09T13:54:18;25.00;53.90
7562;DHT22;3822;48.784;9.174;2022-09-09T13:56:46;25.10;53.70
7562;DHT22;3822;48.784;9.174;2022-09-09T13:59:15;25.20;52.90
7562;DHT22;3822;48.784;9.174;2022-09-09T14:01:43;25.20;52.80
7562;DHT22;3822;48.784;9.174;2022-09-09T14:04:10;25.30;52.70
7562;DHT22;3822;48.784;9.174;2022-09-09T14:06:37;25.50;53.00
7562;DHT22;3822;48.784;9.174;2022-09-09T14:09:06;25.60;52.60
7562;DHT22;3822;48.784;9.174;2022-09-09T14:11:35;25.80;52.10
7562;DHT22;3822;48.784;9.174;2022-09-09T14:14:02;25.90;52.00
7562;DHT22;3822;48.784;9.174;2022-09-09T14:16:28;26.10;50.80
7562;DHT22;3822;48.784;9.174;2022-09-09T14:18:55;26.20;49.90
7562;DHT22;3822;48.784;9.174;2022-09-09T14:21:25;26.30;49.70
7562;DHT22;3822;48.784;9.174;2022-09-09T14:23:52;26.40;48.90
7562;DHT22;3822;48.784;9.174;2022-09-09T14:26:20;26.50;49.10
7562;DHT22;3822;48.784;9.174;2022-09-09T14:28:47;26.50;48.00
7562;DHT22;3822;48.784;9.174;2022-09-09T14:31:14;26.50;47.80
7562;DHT22;3822;48.784;9.174;2022-09-09T14:33:40;26.40;47.40
7562;DHT22;3822;48.784;9.174;2022-09-09T14:36:07;26.20;47.50
7562;DHT22;3822;48.784;9.174;2022-09-09T14:38:35;26.10;48.10
7562;DHT22;3822;48.784;9.174;2022-09-09T14:41:10;26.00;48.50
7562;DHT22;3822;48.784;9.174;2022-09-09T14:43:45;26.00;48.20
7562;DHT22;3822;48.784;9.174;2022-09-09T14:46:13;26.00;47.70
7562;DHT22;3822;48.784;9.174;2022-09-09T14:48:41;26.10;48.00
7562;DHT22;3822;48.784;9.174;2022-09-09T14:51:15;26.10;48.10
7562;DHT22;3822;48.784;9.174;2022-09-09T14:53:43;26.10;47.50
7562;DHT22;3822;48.784;9.174;2022-09-09T14:56:16;26.20;47.20
7562;DHT22;3822;48.784;9.174;2022-09-09T14:58:47;26.10;47.00
7562;DHT22;3822;48.784;9.174;2022-09-09T15:01:17;26.00;46.70
7562;DHT22;3822;48.784;9.174;2022-09-09T15:03:53;26.00;46.60
7562;DHT22;3822;48.784;9.174;2022-09-09T15:06:22;26.00;46.70
7562;DHT22;3822;48.784;9.174;2022-09-09T15:08:51;26.10;46.50
7562;DHT22;3822;48.784;9.174;2022-09-09T15:11:20;26.30;46.20
7562;DHT22;3822;48.784;9.174;2022-09-09T15:13:47;26.30;45.70
7562;DHT22;3822;48.784;9.174;2022-09-09T15:16:15;26.20;45.70
7562;DHT22;3822;48.784;9.174;2022-09-09T15:18:44;26.20;45.70
7562;DHT22;3822;48.784;9.174;2022-09-09T15:21:15;26.10;45.60
7562;DHT22;3822;48.784;9.174;2022-09-09T15:23:43;26.00;45.80
7562;DHT22;3822;48.784;9.174;2022-09-09T15:26:10;25.90;45.90
7562;DHT22;3822;48.784;9.174;2022-09-09T15:28:38;25.70;46.30
7562;DHT22;3822;48.784;9.174;2022-09-09T15:31:07;25.70;46.40
7562;DHT22;3822;48.784;9.174;2022-09-09T15:33:35;25.50;46.50
7562;DHT22;3822;48.784;9.174;2022-09-09T15:36:15;25.50;46.90
7562;DHT22;3822;48.784;9.174;2022-09-09T15:38:46;25.50;47.00
7562;DHT22;3822;48.784;9.174;2022-09-09T15:41:13;25.40;47.20
7562;DHT22;3822;48.784;9.174;2022-09-09T15:43:48;25.40;47.30
7562;DHT22;3822;48.784;9.174;2022-09-09T15:46:29;25.30;47.30
7562;DHT22;3822;48.784;9.174;2022-09-09T15:49:09;25.20;47.50
7562;DHT22;3822;48.784;9.174;2022-09-09T15:51:42;25.10;47.70
7562;DHT22;3822;48.784;9.174;2022-09-09T15:54:31;25.00;48.00
7562;DHT22;3822;48.784;9.174;2022-09-09T15:57:02;24.90;48.20
7562;DHT22;3822;48.784;9.174;2022-09-09T15:59:31;24.80;48.50
7562;DHT22;3822;48.784;9.174;2022-09-09T16:01:58;24.80;48.70
7562;DHT22;3822;48.784;9.174;2022-09-09T16:04:27;24.70;48.60
7562;DHT22;3822;48.784;9.174;2022-09-09T16:07:02;24.60;48.60
7562;DHT22;3822;48.784;9.174;2022-09-09T16:09:30;24.50;48.50
7562;DHT22;3822;48.784;9.174;2022-09-09T16:11:59;24.40;48.60
7562;DHT22;3822;48.784;9.174;2022-09-09T16:14:32;24.30;48.60
7562;DHT22;3822;48.784;9.174;2022-09-09T16:17:05;24.20;48.70
7562;DHT22;3822;48.784;9.174;2022-09-09T16:19:33;24.20;49.10
7562;DHT22;3822;48.784;9.174;2022-09-09T16:22:01;24.10;49.20
7562;DHT22;3822;48.784;9.174;2022-09-09T16:24:28;24.10;49.30
7562;DHT22;3822;48.784;9.174;2022-09-09T16:26:55;24.00;49.40
7562;DHT22;3822;48.784;9.174;2022-09-09T16:29:22;23.90;49.50
7562;DHT22;3822;48.784;9.174;2022-09-09T16:31:49;23.90;49.80
7562;DHT22;3822;48.784;9.174;2022-09-09T16:34:17;23.80;50.10
7562;DHT22;3822;48.784;9.174;2022-09-09T16:36:44;23.70;50.60
7562;DHT22;3822;48.784;9.174;2022-09-09T16:39:13;23.60;50.90
7562;DHT22;3822;48.784;9.174;2022-09-09T16:41:41;23.50;51.60
7562;DHT22;3822;48.784;9.174;2022-09-09T16:44:11;23.60;52.20
7562;DHT22;3822;48.784;9.174;2022-09-09T16:46:43;23.30;52.50
7562;DHT22;3822;48.784;9.174;2022-09-09T16:49:13;23.20;52.70
7562;DHT22;3822;48.784;9.174;2022-09-09T16:51:43;23.00;52.80
7562;DHT22;3822;48.784;9.174;2022-09-09T16:54:14;23.00;52.60
7562;DHT22;3822;48.784;9.174;2022-09-09T16:56:45;22.80;52.50
7562;DHT22;3822;48.784;9.174;2022-09-09T16:59:17;22.60;53.30
7562;DHT22;3822;48.784;9.174;2022-09-09T17:01:46;22.50;53.60
7562;DHT22;3822;48.784;9.174;2022-09-09T17:04:19;22.40;54.00
7562;DHT22;3822;48.784;9.174;2022-09-09T17:06:48;22.20;54.20
7562;DHT22;3822;48.784;9.174;2022-09-09T17:09:16;22.20;54.50
7562;DHT22;3822;48.784;9.174;2022-09-09T17:11:43;22.10;54.60
7562;DHT22;3822;48.784;9.174;2022-09-09T17:14:14;22.00;54.80
7562;DHT22;3822;48.784;9.174;2022-09-09T17:16:43;22.00;55.10
7562;DHT22;3822;48.784;9.174;2022-09-09T17:19:10;21.90;55.20
7562;DHT22;3822;48.784;9.174;2022-09-09T17:21:40;21.90;55.50
7562;DHT22;3822;48.784;9.174;2022-09-09T17:24:06;21.90;55.70
7562;DHT22;3822;48.784;9.174;2022-09-09T17:26:33;21.90;56.00
7562;DHT22;3822;48.784;9.174;2022-09-09T17:29:01;21.80;56.20
7562;DHT22;3822;48.784;9.174;2022-09-09T17:31:28;21.80;56.50
7562;DHT22;3822;48.784;9.174;2022-09-09T17:33:56;21.70;56.70
7562;DHT22;3822;48.784;9.174;2022-09-09T17:36:26;21.60;57.00
7562;DHT22;3822;48.784;9.174;2022-09-09T17:38:54;21.60;57.40
7562;DHT22;3822;48.784;9.174;2022-09-09T17:41:26;21.50;57.70
7562;DHT22;3822;48.784;9.174;2022-09-09T17:43:55;21.50;58.20
7562;DHT22;3822;48.784;9.174;2022-09-09T17:46:25;21.40;58.50
7562;DHT22;3822;48.784;9.174;2022-09-09T17:49:00;21.30;58.90
7562;DHT22;3822;48.784;9.174;2022-09-09T17:51:29;21.20;59.90
7562;DHT22;3822;48.784;9.174;2022-09-09T17:54:03;21.10;59.80
7562;DHT22;3822;48.784;9.174;2022-09-09T17:56:34;21.00;60.00
7562;DHT22;3822;48.784;9.174;2022-09-09T17:59:03;21.00;60.50
7562;DHT22;3822;48.784;9.174;2022-09-09T18:01:33;20.90;60.80
7562;DHT22;3822;48.784;9.174;2022-09-09T18:04:03;20.70;61.00
7562;DHT22;3822;48.784;9.174;2022-09-09T18:06:41;20.80;61.50
7562;DHT22;3822;48.784;9.174;2022-09-09T18:09:15;20.80;61.90
7562;DHT22;3822;48.784;9.174;2022-09-09T18:11:46;20.70;62.20
7562;DHT22;3822;48.784;9.174;2022-09-09T18:14:20;20.60;62.50
7562;DHT22;3822;48.784;9.174;2022-09-09T18:16:48;20.60;63.00
7562;DHT22;3822;48.784;9.174;2022-09-09T18:19:18;20.60;63.30
7562;DHT22;3822;48.784;9.174;2022-09-09T18:21:46;20.60;63.60
7562;DHT22;3822;48.784;9.174;2022-09-09T18:24:14;20.50;64.00
7562;DHT22;3822;48.784;9.174;2022-09-09T18:26:43;20.50;64.20